createdAt,value
2022-12-16T00:00:30.898Z,99515.59
2022-12-16T00:03:00.481Z,99515.72
2022-12-16T00:05:28.153Z,99515.81
2022-12-16T00:07:55.406Z,99527.22
2022-12-16T00:10:23.022Z,99529.16
2022-12-16T00:12:49.380Z,99521.16
2022-12-16T00:15:18.345Z,99530.38
2022-12-16T00:17:44.740Z,99531.22
2022-12-16T00:20:11.706Z,99536.56
2022-12-16T00:22:38.077Z,99537.69
2022-12-16T00:25:05.235Z,99546.53
2022-12-16T00:27:34.879Z,99541.44
2022-12-16T00:30:09.698Z,99545.69
2022-12-16T00:32:38.402Z,99546.78
2022-12-16T00:35:05.044Z,99552.22
2022-12-16T00:37:31.461Z,99546.03
2022-12-16T00:39:57.991Z,99555.16
2022-12-16T00:42:26.691Z,99555.16
2022-12-16T00:44:53.092Z,99562.41
2022-12-16T00:47:21.232Z,99567.03
2022-12-16T00:49:47.637Z,99567.16
2022-12-16T00:52:14.043Z,99569.09
2022-12-16T00:54:40.546Z,99574.28
2022-12-16T00:57:06.972Z,99579.63
2022-12-16T00:59:33.485Z,99584.25
2022-12-16T01:02:00.222Z,99590.53
2022-12-16T01:04:26.930Z,99592.63
2022-12-16T01:06:54.543Z,99588.88
2022-12-16T01:09:22.165Z,99589.84
2022-12-16T01:11:48.665Z,99589.09
2022-12-16T01:14:15.154Z,99594.56
2022-12-16T01:16:41.743Z,99597.72
2022-12-16T01:19:13.642Z,99606.91
2022-12-16T01:21:40.292Z,99604.84
2022-12-16T01:24:09.556Z,99606.56
2022-12-16T01:26:35.996Z,99611.19
2022-12-16T01:29:02.572Z,99610.06
2022-12-16T01:31:29.170Z,99608.63
2022-12-16T01:33:58.243Z,99610.31
2022-12-16T01:36:24.629Z,99613.69
2022-12-16T01:38:51.158Z,99613.69
2022-12-16T01:41:20.946Z,99614.31
2022-12-16T01:43:47.681Z,99616.88
2022-12-16T01:46:18.464Z,99616.00
2022-12-16T01:48:47.551Z,99613.34
2022-12-16T01:51:21.608Z,99604.63
2022-12-16T01:53:50.430Z,99609.22
2022-12-16T01:56:19.653Z,99600.50
2022-12-16T01:58:47.008Z,99611.19
2022-12-16T02:01:17.072Z,99608.63
2022-12-16T02:03:44.348Z,99608.00
2022-12-16T02:06:10.888Z,99611.78
2022-12-16T02:08:39.886Z,99607.41
2022-12-16T02:11:25.231Z,99605.69
2022-12-16T02:14:09.930Z,99609.47
2022-12-16T02:16:57.601Z,99608.00
2022-12-16T02:19:43.352Z,99597.34
2022-12-16T02:22:12.570Z,99605.59
2022-12-16T02:25:19.687Z,99611.38
2022-12-16T02:27:55.805Z,99619.50
2022-12-16T02:30:47.706Z,99611.16
2022-12-16T02:33:29.703Z,99613.31
2022-12-16T02:36:11.902Z,99624.31
2022-12-16T02:38:59.201Z,99624.31
2022-12-16T02:41:59.321Z,99631.59
2022-12-16T02:44:35.825Z,99627.13
2022-12-16T02:47:02.782Z,99642.94
2022-12-16T02:49:29.104Z,99649.22
2022-12-16T02:51:59.046Z,99644.28
2022-12-16T02:54:30.751Z,99654.31
2022-12-16T02:57:16.132Z,99644.84
2022-12-16T02:59:55.335Z,99645.91
2022-12-16T03:02:55.491Z,99647.72
2022-12-16T03:05:34.252Z,99643.72
2022-12-16T03:08:05.878Z,99643.22
2022-12-16T03:10:40.076Z,99650.72
2022-12-16T03:13:09.690Z,99645.50
2022-12-16T03:15:36.560Z,99643.91
2022-12-16T03:18:05.992Z,99639.88
2022-12-16T03:20:47.124Z,99639.25
2022-12-16T03:23:22.012Z,99646.53
2022-12-16T03:25:53.033Z,99645.78
2022-12-16T03:28:49.546Z,99648.66
2022-12-16T03:31:38.626Z,99651.78
2022-12-16T03:34:07.135Z,99652.97
2022-12-16T03:36:36.921Z,99649.69
2022-12-16T03:39:05.715Z,99659.81
2022-12-16T03:41:35.620Z,99666.31
2022-12-16T03:44:02.483Z,99670.47
2022-12-16T03:46:28.928Z,99681.09
2022-12-16T03:48:55.501Z,99684.31
2022-12-16T03:51:21.859Z,99690.19
2022-12-16T03:53:48.455Z,99685.50
2022-12-16T03:56:14.941Z,99685.75
2022-12-16T03:58:41.449Z,99694.56
2022-12-16T04:01:09.722Z,99697.91
2022-12-16T04:03:37.963Z,99701.28
2022-12-16T04:06:05.290Z,99696.19
2022-12-16T04:08:34.214Z,99706.59
2022-12-16T04:11:19.451Z,99715.75
2022-12-16T04:14:06.513Z,99708.13
2022-12-16T04:16:51.548Z,99711.97
2022-12-16T04:19:47.353Z,99720.56
2022-12-16T04:22:36.935Z,99720.03
2022-12-16T04:25:20.857Z,99722.34
2022-12-16T04:27:47.360Z,99726.81
2022-12-16T04:30:22.025Z,99736.50
2022-12-16T04:33:14.621Z,99733.31
2022-12-16T04:35:59.681Z,99738.81
2022-12-16T04:38:44.747Z,99730.13
2022-12-16T04:41:30.506Z,99734.50
2022-12-16T04:44:15.773Z,99746.06
2022-12-16T04:47:01.029Z,99745.13
2022-12-16T04:49:46.039Z,99743.09
2022-12-16T04:52:34.071Z,99752.13
2022-12-16T04:55:19.523Z,99762.28
2022-12-16T04:58:23.238Z,99763.34
2022-12-16T05:01:08.591Z,99766.13
2022-12-16T05:03:54.818Z,99762.28
2022-12-16T05:06:40.102Z,99767.94
2022-12-16T05:09:25.833Z,99773.44
2022-12-16T05:12:11.715Z,99782.06
2022-12-16T05:14:59.699Z,99783.97
2022-12-16T05:17:47.392Z,99779.59
2022-12-16T05:20:34.808Z,99786.38
2022-12-16T05:23:19.666Z,99790.63
2022-12-16T05:26:04.626Z,99793.28
2022-12-16T05:28:49.682Z,99799.03
2022-12-16T05:31:34.965Z,99797.91
2022-12-16T05:34:20.431Z,99804.38
2022-12-16T05:37:05.345Z,99811.59
2022-12-16T05:39:50.661Z,99811.69
2022-12-16T05:42:37.046Z,99815.41
2022-12-16T05:45:22.215Z,99817.84
2022-12-16T05:48:10.474Z,99823.66
2022-12-16T05:50:58.006Z,99831.81
2022-12-16T05:53:43.096Z,99835.31
2022-12-16T05:56:30.940Z,99838.06
2022-12-16T05:59:16.236Z,99842.00
2022-12-16T06:02:01.348Z,99846.38
2022-12-16T06:04:46.387Z,99858.72
2022-12-16T06:07:31.394Z,99860.13
2022-12-16T06:10:16.335Z,99860.72
2022-12-16T06:13:05.410Z,99866.41
2022-12-16T06:15:51.029Z,99868.19
2022-12-16T06:18:36.430Z,99869.91
2022-12-16T06:21:23.907Z,99876.94
2022-12-16T06:24:09.066Z,99888.94
2022-12-16T06:26:54.245Z,99885.47
2022-12-16T06:29:39.308Z,99892.66
2022-12-16T06:32:24.525Z,99898.03
2022-12-16T06:35:09.594Z,99897.75
2022-12-16T06:37:54.489Z,99912.88
2022-12-16T06:40:39.456Z,99914.25
2022-12-16T06:43:24.764Z,99918.22
2022-12-16T06:46:12.452Z,99926.66
2022-12-16T06:48:57.303Z,99927.50
2022-12-16T06:51:42.353Z,99939.34
2022-12-16T06:54:27.431Z,99934.34
2022-12-16T06:57:12.652Z,99933.66
2022-12-16T06:59:57.502Z,99948.53
2022-12-16T07:02:44.343Z,99952.13
2022-12-16T07:05:29.541Z,99957.16
2022-12-16T07:08:14.303Z,99972.31
2022-12-16T07:11:13.897Z,99968.63
2022-12-16T07:14:01.259Z,99979.50
2022-12-16T07:16:46.532Z,99980.75
2022-12-16T07:19:31.322Z,99985.66
2022-12-16T07:22:16.237Z,99987.84
2022-12-16T07:25:01.116Z,99984.34
2022-12-16T07:27:46.242Z,99994.09
2022-12-16T07:30:31.381Z,99994.56
2022-12-16T07:33:18.898Z,99995.81
2022-12-16T07:36:03.979Z,99998.47
2022-12-16T07:38:49.181Z,100000.72
2022-12-16T07:41:34.331Z,100001.31
2022-12-16T07:44:19.189Z,100010.13
2022-12-16T07:47:04.129Z,100022.31
2022-12-16T07:49:49.365Z,100023.19
2022-12-16T07:52:34.425Z,100026.97
2022-12-16T07:55:19.421Z,100026.56
2022-12-16T07:58:19.715Z,100040.97
2022-12-16T08:01:09.144Z,100043.69
2022-12-16T08:03:54.612Z,100051.03
2022-12-16T08:06:41.550Z,100055.97
2022-12-16T08:09:26.664Z,100064.44
2022-12-16T08:12:11.932Z,100066.38
2022-12-16T08:14:56.688Z,100064.31
2022-12-16T08:17:42.007Z,100051.06
2022-12-16T08:20:27.638Z,100065.13
2022-12-16T08:23:12.535Z,100067.78
2022-12-16T08:26:01.369Z,100070.59
2022-12-16T08:28:46.257Z,100081.59
2022-12-16T08:31:31.397Z,100092.75
2022-12-16T08:34:16.499Z,100087.84
2022-12-16T08:37:05.978Z,100090.97
2022-12-16T08:40:10.619Z,100096.94
2022-12-16T08:42:56.170Z,100092.78
2022-12-16T08:45:42.077Z,100097.16
2022-12-16T08:48:27.619Z,100105.31
2022-12-16T08:51:12.774Z,100111.38
2022-12-16T08:53:57.661Z,100102.25
2022-12-16T08:56:42.908Z,100113.38
2022-12-16T08:59:27.722Z,100110.13
2022-12-16T09:02:13.208Z,100118.59
2022-12-16T09:04:58.400Z,100126.91
2022-12-16T09:07:43.644Z,100137.38
2022-12-16T09:10:33.325Z,100134.88
2022-12-16T09:13:26.289Z,100142.47
2022-12-16T09:16:15.867Z,100148.34
2022-12-16T09:19:04.292Z,100154.78
2022-12-16T09:21:54.819Z,100160.34
2022-12-16T09:24:39.657Z,100154.91
2022-12-16T09:27:24.797Z,100157.13
2022-12-16T09:30:10.000Z,100161.97
2022-12-16T09:32:59.972Z,100162.56
2022-12-16T09:35:45.218Z,100171.41
2022-12-16T09:38:30.558Z,100167.84
2022-12-16T09:41:15.656Z,100173.91
2022-12-16T09:44:28.578Z,100174.25
2022-12-16T09:47:26.096Z,100164.13
2022-12-16T09:50:13.408Z,100174.47
2022-12-16T09:53:03.275Z,100178.19
2022-12-16T09:55:50.059Z,100181.28
2022-12-16T09:58:41.299Z,100178.81
2022-12-16T10:01:30.734Z,100180.53
2022-12-16T10:04:16.749Z,100181.09
2022-12-16T10:07:07.024Z,100177.25
2022-12-16T10:10:08.765Z,100174.88
2022-12-16T10:13:12.187Z,100184.69
2022-12-16T10:16:19.982Z,100190.09
2022-12-16T10:19:04.617Z,100196.50
2022-12-16T10:22:13.830Z,100189.78
2022-12-16T10:25:36.549Z,100187.88
2022-12-16T10:28:35.811Z,100188.91
2022-12-16T10:31:31.720Z,100194.25
2022-12-16T10:34:16.651Z,100194.13
2022-12-16T10:37:09.005Z,100197.22
2022-12-16T10:40:01.220Z,100196.69
2022-12-16T10:42:50.047Z,100192.84
2022-12-16T10:45:49.444Z,100191.81
2022-12-16T10:48:55.080Z,100186.94
2022-12-16T10:51:45.881Z,100196.97
2022-12-16T10:54:39.914Z,100192.56
2022-12-16T10:57:33.767Z,100206.88
2022-12-16T11:00:35.222Z,100200.59
2022-12-16T11:03:41.277Z,100197.06
2022-12-16T11:06:26.900Z,100203.56
2022-12-16T11:09:11.996Z,100212.06
2022-12-16T11:11:57.047Z,100200.34
2022-12-16T11:17:54.090Z,100209.56
2022-12-16T11:20:43.036Z,100204.22
2022-12-16T11:23:40.308Z,100221.38
2022-12-16T11:26:37.625Z,100210.47
2022-12-16T11:29:30.257Z,100209.53
2022-12-16T11:32:35.656Z,100219.50
2022-12-16T11:35:23.274Z,100226.09
2022-12-16T11:38:12.981Z,100235.34
2022-12-16T11:40:58.351Z,100245.22
2022-12-16T11:43:44.531Z,100229.19
2022-12-16T11:46:34.535Z,100245.78
2022-12-16T11:49:32.553Z,100246.06
2022-12-16T11:52:36.448Z,100244.63
2022-12-16T11:56:05.566Z,100251.56
2022-12-16T11:58:55.262Z,100245.19
2022-12-16T12:01:48.299Z,100265.13
2022-12-16T12:04:33.385Z,100284.28
2022-12-16T12:07:42.740Z,100265.81
2022-12-16T12:11:00.926Z,100282.47
2022-12-16T12:14:04.190Z,100288.72
2022-12-16T12:17:05.977Z,100274.47
2022-12-16T12:20:14.215Z,100270.59
2022-12-16T12:22:59.482Z,100286.66
2022-12-16T12:25:44.939Z,100278.13
2022-12-16T12:29:01.883Z,100303.06
2022-12-16T12:32:22.000Z,100282.78
2022-12-16T12:35:22.150Z,100265.97
2022-12-16T12:38:46.475Z,100272.06
2022-12-16T12:41:42.550Z,100277.31
2022-12-16T12:44:48.853Z,100279.34
2022-12-16T12:47:36.313Z,100286.19
2022-12-16T12:51:09.007Z,100297.13
2022-12-16T12:54:33.030Z,100301.28
2022-12-16T12:57:23.634Z,100305.31
2022-12-16T13:00:36.897Z,100298.13
2022-12-16T13:03:35.127Z,100303.97
2022-12-16T13:06:20.782Z,100290.91
2022-12-16T13:09:08.967Z,100312.25
2022-12-16T13:12:17.581Z,100307.84
2022-12-16T13:15:12.652Z,100315.88
2022-12-16T13:18:19.450Z,100321.50
2022-12-16T13:21:07.299Z,100317.25
2022-12-16T13:23:57.944Z,100296.66
2022-12-16T13:26:45.189Z,100298.22
2022-12-16T13:29:43.546Z,100300.28
2022-12-16T13:32:28.858Z,100310.28
2022-12-16T13:35:23.047Z,100322.84
2022-12-16T13:38:15.996Z,100325.28
2022-12-16T13:41:08.551Z,100318.09
2022-12-16T13:44:13.500Z,100328.56
2022-12-16T13:47:10.908Z,100337.47
2022-12-16T13:49:56.334Z,100332.97
2022-12-16T13:53:01.533Z,100331.25
2022-12-16T13:55:56.517Z,100347.94
2022-12-16T13:59:00.263Z,100333.19
2022-12-16T14:01:56.692Z,100334.66
2022-12-16T14:04:47.128Z,100340.63
2022-12-16T14:07:35.578Z,100344.41
2022-12-16T14:10:21.649Z,100347.34
2022-12-16T14:13:25.899Z,100356.84
2022-12-16T14:16:33.081Z,100369.47
2022-12-16T14:19:37.999Z,100363.03
2022-12-16T14:22:41.420Z,100373.38
2022-12-16T14:25:33.652Z,100385.09
2022-12-16T14:28:19.126Z,100391.03
2022-12-16T14:31:04.942Z,100390.63
2022-12-16T14:33:50.010Z,100393.03
2022-12-16T14:36:46.813Z,100392.56
2022-12-16T14:39:40.069Z,100401.06
2022-12-16T14:42:37.533Z,100396.28
2022-12-16T14:45:24.590Z,100400.31
2022-12-16T14:48:09.592Z,100400.16
2022-12-16T14:50:54.693Z,100415.69
2022-12-16T14:53:42.460Z,100413.59
2022-12-16T14:56:41.799Z,100417.81
2022-12-16T14:59:31.895Z,100423.97
2022-12-16T15:02:26.964Z,100428.28
2022-12-16T15:05:14.815Z,100428.00
2022-12-16T15:08:02.570Z,100432.72
2022-12-16T15:10:47.942Z,100437.13
2022-12-16T15:13:36.868Z,100437.78
2022-12-16T15:16:23.723Z,100431.94
2022-12-16T15:19:18.475Z,100441.75
2022-12-16T15:22:03.666Z,100450.50
2022-12-16T15:24:54.292Z,100459.94
2022-12-16T15:27:39.445Z,100453.81
2022-12-16T15:30:57.373Z,100462.59
2022-12-16T15:33:48.027Z,100470.38
2022-12-16T15:36:48.944Z,100475.19
2022-12-16T15:39:38.953Z,100477.47
2022-12-16T15:42:35.941Z,100481.72
2022-12-16T15:45:21.341Z,100484.53
2022-12-16T15:48:09.706Z,100485.78
2022-12-16T15:50:55.613Z,100499.47
2022-12-16T15:53:50.881Z,100490.69
2022-12-16T15:57:00.236Z,100508.88
2022-12-16T15:59:49.027Z,100512.72
2022-12-16T16:02:41.516Z,100519.78
2022-12-16T16:05:32.123Z,100520.41
2022-12-16T16:08:17.546Z,100522.13
2022-12-16T16:11:05.518Z,100521.50
2022-12-16T16:13:50.581Z,100529.63
2022-12-16T16:16:35.967Z,100528.13
2022-12-16T16:19:21.942Z,100528.97
2022-12-16T16:22:09.657Z,100530.59
2022-12-16T16:24:54.731Z,100535.72
2022-12-16T16:27:42.091Z,100532.97
2022-12-16T16:30:29.842Z,100534.78
2022-12-16T16:33:14.957Z,100540.56
2022-12-16T16:35:59.998Z,100552.94
2022-12-16T16:38:45.138Z,100550.16
2022-12-16T16:41:36.952Z,100552.94
2022-12-16T16:44:24.405Z,100552.06
2022-12-16T16:47:09.454Z,100557.84
2022-12-16T16:49:59.519Z,100562.97
2022-12-16T16:52:46.237Z,100561.25
2022-12-16T16:55:40.208Z,100566.16
2022-12-16T16:58:31.380Z,100591.13
2022-12-16T17:01:16.634Z,100581.69
2022-12-16T17:04:01.787Z,100585.53
2022-12-16T17:06:47.240Z,100592.97
2022-12-16T17:09:32.364Z,100597.00
2022-12-16T17:12:17.703Z,100604.63
2022-12-16T17:15:02.570Z,100612.28
2022-12-16T17:17:47.627Z,100609.78
2022-12-16T17:20:34.401Z,100610.19
2022-12-16T17:23:20.031Z,100612.44
2022-12-16T17:26:25.622Z,100609.31
2022-12-16T17:29:10.882Z,100606.16
2022-12-16T17:31:56.128Z,100619.13
2022-12-16T17:34:41.130Z,100619.34
2022-12-16T17:37:26.350Z,100623.34
2022-12-16T17:40:13.960Z,100621.09
2022-12-16T17:42:58.939Z,100620.22
2022-12-16T17:45:43.960Z,100631.94
2022-12-16T17:48:29.455Z,100642.25
2022-12-16T17:51:14.418Z,100635.56
2022-12-16T17:54:03.072Z,100640.91
2022-12-16T17:56:50.878Z,100645.88
2022-12-16T17:59:35.884Z,100642.06
2022-12-16T18:02:20.786Z,100642.63
2022-12-16T18:05:05.824Z,100649.50
2022-12-16T18:07:55.311Z,100648.25
2022-12-16T18:10:40.219Z,100653.38
2022-12-16T18:13:25.117Z,100660.84
2022-12-16T18:16:11.286Z,100675.03
2022-12-16T18:18:58.739Z,100669.69
2022-12-16T18:21:43.898Z,100668.25
2022-12-16T18:24:30.444Z,100668.31
2022-12-16T18:27:15.521Z,100676.03
2022-12-16T18:30:19.382Z,100684.69
2022-12-16T18:33:04.657Z,100689.69
2022-12-16T18:35:49.648Z,100689.03
2022-12-16T18:38:34.619Z,100692.44
2022-12-16T18:41:24.462Z,100707.03
2022-12-16T18:44:09.806Z,100704.75
2022-12-16T18:46:54.801Z,100708.19
2022-12-16T18:49:40.156Z,100709.91
2022-12-16T18:52:25.212Z,100712.09
2022-12-16T18:55:10.480Z,100711.53
2022-12-16T18:57:55.598Z,100724.28
2022-12-16T19:00:43.164Z,100737.78
2022-12-16T19:03:28.190Z,100727.38
2022-12-16T19:06:16.764Z,100726.28
2022-12-16T19:09:01.436Z,100738.03
2022-12-16T19:11:47.171Z,100733.25
2022-12-16T19:14:32.110Z,100741.22
2022-12-16T19:17:24.154Z,100744.91
2022-12-16T19:20:09.255Z,100750.75
2022-12-16T19:22:54.904Z,100749.53
2022-12-16T19:25:41.892Z,100748.09
2022-12-16T19:28:36.665Z,100760.13
2022-12-16T19:31:21.712Z,100760.44
2022-12-16T19:34:12.462Z,100765.44
2022-12-16T19:36:58.019Z,100769.63
2022-12-16T19:39:45.471Z,100784.81
2022-12-16T19:42:31.483Z,100791.66
2022-12-16T19:45:16.868Z,100793.00
2022-12-16T19:48:02.027Z,100788.03
2022-12-16T19:50:46.849Z,100792.47
2022-12-16T19:53:31.835Z,100797.09
2022-12-16T19:56:18.792Z,100789.91
2022-12-16T19:59:04.344Z,100798.03
2022-12-16T20:01:49.912Z,100810.88
2022-12-16T20:04:34.906Z,100811.75
2022-12-16T20:07:23.145Z,100819.19
2022-12-16T20:10:23.898Z,100827.94
2022-12-16T20:13:12.443Z,100822.94
2022-12-16T20:15:59.593Z,100829.50
2022-12-16T20:18:44.475Z,100830.28
2022-12-16T20:21:53.553Z,100832.31
2022-12-16T20:24:43.965Z,100829.25
2022-12-16T20:27:29.688Z,100833.56
2022-12-16T20:30:15.301Z,100841.69
2022-12-16T20:33:01.015Z,100842.88
2022-12-16T20:35:46.461Z,100839.81
2022-12-16T20:38:31.652Z,100845.66
2022-12-16T20:41:22.178Z,100847.22
2022-12-16T20:44:08.531Z,100856.38
2022-12-16T20:46:56.294Z,100861.09
2022-12-16T20:49:42.520Z,100854.22
2022-12-16T20:52:27.667Z,100870.69
2022-12-16T20:55:12.581Z,100868.59
2022-12-16T20:57:57.759Z,100875.91
2022-12-16T21:00:42.845Z,100866.47
2022-12-16T21:03:28.532Z,100884.63
2022-12-16T21:06:13.494Z,100887.50
2022-12-16T21:09:01.258Z,100885.53
2022-12-16T21:11:47.433Z,100891.41
2022-12-16T21:14:32.946Z,100900.00
2022-12-16T21:17:17.853Z,100911.97
2022-12-16T21:20:03.127Z,100908.59
2022-12-16T21:22:48.656Z,100906.53
2022-12-16T21:25:38.948Z,100919.16
2022-12-16T21:28:26.702Z,100917.81
2022-12-16T21:31:12.032Z,100919.75
2022-12-16T21:34:16.659Z,100917.34
2022-12-16T21:37:02.383Z,100927.34
2022-12-16T21:39:47.357Z,100939.66
2022-12-16T21:42:46.382Z,100947.78
2022-12-16T21:45:31.622Z,100949.84
2022-12-16T21:48:23.220Z,100952.78
2022-12-16T21:51:11.928Z,100958.53
2022-12-16T21:54:04.803Z,100961.50
2022-12-16T21:56:52.875Z,100965.22
2022-12-16T21:59:41.774Z,100971.78
2022-12-16T22:02:32.849Z,100967.66
2022-12-16T22:05:25.893Z,100961.66
2022-12-16T22:08:10.836Z,100975.03
2022-12-16T22:10:56.076Z,100978.78
2022-12-16T22:13:43.644Z,100982.69
2022-12-16T22:16:28.985Z,100991.66
2022-12-16T22:19:14.308Z,100995.44
2022-12-16T22:22:01.583Z,101000.53
2022-12-16T22:24:46.717Z,101011.44
2022-12-16T22:27:31.647Z,101022.44
2022-12-16T22:30:16.418Z,101026.00
2022-12-16T22:33:01.261Z,101030.38
2022-12-16T22:35:46.347Z,101031.59
2022-12-16T22:38:31.297Z,101041.53
2022-12-16T22:41:18.090Z,101034.44
2022-12-16T22:44:04.572Z,101039.00
2022-12-16T22:46:49.962Z,101046.03
2022-12-16T22:49:35.286Z,101043.44
2022-12-16T22:52:22.738Z,101052.59
2022-12-16T22:55:07.875Z,101046.50
2022-12-16T23:00:57.686Z,101056.59
2022-12-16T23:03:45.604Z,101055.00
2022-12-16T23:06:30.856Z,101063.22
2022-12-16T23:12:18.833Z,101066.78
2022-12-16T23:15:03.694Z,101067.78
2022-12-16T23:17:49.305Z,101075.16
2022-12-16T23:20:34.738Z,101080.53
2022-12-16T23:23:19.592Z,101078.91
2022-12-16T23:26:18.140Z,101084.47
2022-12-16T23:29:17.364Z,101084.72
2022-12-16T23:32:02.326Z,101083.03
2022-12-16T23:32:31.406Z,101051.13
2022-12-16T23:34:49.803Z,101086.72
2022-12-16T23:37:35.189Z,101080.75
2022-12-16T23:40:20.374Z,101085.38
2022-12-16T23:43:06.446Z,101088.06
2022-12-16T23:45:51.769Z,101095.22
2022-12-16T23:48:53.391Z,101094.44
2022-12-16T23:51:39.201Z,101102.25
2022-12-16T23:54:24.015Z,101101.44
2022-12-16T23:57:09.280Z,101102.41
2022-12-16T23:59:54.591Z,101104.81
